Time;durP1;ratioP1;P1;durP2;ratioP2;P2;SDS_P1;SDS_P2;PMS_P1;PMS_P2;Temp;Humidity;BMP_temperature;BMP_pressure;BME280_temperature;BME280_humidity;BME280_pressure;Samples;Min_cycle;Max_cycle;Signal;HPM_P1;HPM_P2
2021/07/23 00:01:28;;;;;;;2.57;2.07;;;;;;;13.98;94.45;100867.22;5073409;28;20209;-72
2021/07/23 00:03:54;;;;;;;2.60;1.70;;;;;;;13.96;94.44;100866.75;5073360;28;20204;-72
2021/07/23 00:06:19;;;;;;;2.80;2.00;;;;;;;13.91;94.75;100864.16;5073187;28;20181;-72
2021/07/23 00:08:45;;;;;;;1.53;1.43;;;;;;;13.88;94.55;100868.34;5073471;28;20198;-72
2021/07/23 00:11:11;;;;;;;2.23;1.87;;;;;;;13.87;94.75;100868.66;5072842;28;20205;-72
2021/07/23 00:13:36;;;;;;;2.17;1.97;;;;;;;13.79;94.73;100870.28;5073098;28;20277;-72
2021/07/23 00:16:02;;;;;;;2.97;1.97;;;;;;;13.69;94.71;100871.41;5073005;28;20270;-72
2021/07/23 00:18:27;;;;;;;5.17;2.00;;;;;;;13.54;95.46;100871.88;5072871;28;20242;-72
2021/07/23 00:20:52;;;;;;;1.97;1.87;;;;;;;13.40;96.51;100868.47;5072736;28;20174;-72
2021/07/23 00:23:17;;;;;;;1.97;1.87;;;;;;;13.33;97.71;100866.19;5072960;28;20600;-71
2021/07/23 00:25:43;;;;;;;2.10;2.00;;;;;;;13.34;98.66;100859.59;5072941;28;20178;-72
2021/07/23 00:28:08;;;;;;;2.30;2.20;;;;;;;13.30;98.60;100857.78;5072974;28;20676;-72
2021/07/23 00:30:34;;;;;;;2.07;1.93;;;;;;;13.23;98.72;100862.94;5071809;28;20646;-72
2021/07/23 00:33:01;;;;;;;5.70;2.60;;;;;;;13.23;98.81;100862.94;5072440;28;20177;-72
2021/07/23 00:35:28;;;;;;;2.13;1.93;;;;;;;13.13;99.63;100855.75;5072870;28;20260;-72
2021/07/23 00:37:54;;;;;;;2.80;2.60;;;;;;;13.15;100.00;100853.50;5072527;28;20236;-72
2021/07/23 00:40:19;;;;;;;2.10;2.00;;;;;;;13.11;99.93;100858.03;5071292;28;20183;-72
2021/07/23 00:42:44;;;;;;;2.93;2.73;;;;;;;13.06;100.00;100852.69;5072293;28;20178;-72
2021/07/23 00:45:10;;;;;;;3.60;2.53;;;;;;;13.07;100.00;100843.34;5072469;28;20181;-71
2021/07/23 00:47:37;;;;;;;2.03;1.93;;;;;;;13.06;100.00;100866.41;5072763;28;20182;-72
2021/07/23 00:50:04;;;;;;;2.30;2.10;;;;;;;13.05;100.00;100860.13;5072444;28;20189;-72
2021/07/23 00:52:29;;;;;;;2.37;2.17;;;;;;;13.05;100.00;100862.06;5072160;28;20207;-72
2021/07/23 00:54:55;;;;;;;2.30;2.10;;;;;;;13.05;100.00;100846.41;5072412;28;20179;-72
2021/07/23 00:57:21;;;;;;;1.97;1.87;;;;;;;12.97;100.00;100860.06;5072251;28;20205;-72
2021/07/23 00:59:46;;;;;;;2.37;2.17;;;;;;;12.91;100.00;100851.19;5072190;28;20221;-72
2021/07/23 01:02:12;;;;;;;3.00;2.07;;;;;;;12.86;100.00;100854.06;5070674;28;20642;-72
2021/07/23 01:04:39;;;;;;;2.57;2.37;;;;;;;12.86;100.00;100856.78;5072067;28;20178;-72
2021/07/23 01:07:05;;;;;;;2.43;2.23;;;;;;;12.86;100.00;100856.78;5072123;28;20185;-72
2021/07/23 01:09:31;;;;;;;2.50;2.30;;;;;;;12.86;100.00;100865.03;5072069;28;20178;-72
2021/07/23 01:11:57;;;;;;;2.23;2.03;;;;;;;12.81;100.00;100857.75;5071714;28;20590;-72
2021/07/23 01:14:24;;;;;;;2.40;2.20;;;;;;;12.83;100.00;100851.94;5071914;28;20179;-71
2021/07/23 01:16:49;;;;;;;2.27;2.13;;;;;;;12.85;100.00;100855.19;5071934;28;20247;-71
2021/07/23 01:19:17;;;;;;;2.23;2.00;;;;;;;12.84;100.00;100850.00;5071925;28;20646;-72
2021/07/23 01:21:45;;;;;;;2.40;2.20;;;;;;;12.80;100.00;100850.66;5070165;28;20171;-72
2021/07/23 01:24:13;;;;;;;2.57;2.23;;;;;;;12.78;100.00;100850.16;5071704;28;20246;-72
2021/07/23 01:26:39;;;;;;;2.17;1.97;;;;;;;12.78;100.00;100860.31;5071749;28;20174;-72
2021/07/23 01:29:05;;;;;;;2.80;2.20;;;;;;;12.78;100.00;100857.59;5071584;28;20181;-72
2021/07/23 01:31:30;;;;;;;2.30;2.10;;;;;;;12.83;100.00;100843.72;5071382;28;20253;-72
2021/07/23 01:33:55;;;;;;;2.80;2.20;;;;;;;12.75;100.00;100841.78;5071553;28;20676;-72
2021/07/23 01:36:22;;;;;;;2.40;2.23;;;;;;;12.69;100.00;100843.00;5071566;28;20638;-72
2021/07/23 01:38:49;;;;;;;3.00;2.10;;;;;;;12.66;100.00;100846.41;5071550;28;20384;-72
2021/07/23 01:41:15;;;;;;;2.30;2.20;;;;;;;12.61;100.00;100843.81;5071421;28;20178;-72
2021/07/23 01:43:41;;;;;;;2.43;2.30;;;;;;;12.61;100.00;100841.88;5071413;28;20175;-72
2021/07/23 01:46:06;;;;;;;2.33;2.13;;;;;;;12.61;100.00;100843.81;5070070;28;20828;-72
2021/07/23 01:48:32;;;;;;;2.83;2.63;;;;;;;12.63;100.00;100845.09;5071462;28;20166;-72
2021/07/23 01:50:57;;;;;;;3.43;2.23;;;;;;;12.68;100.00;100842.22;5071012;28;20170;-72
2021/07/23 01:53:22;;;;;;;4.70;2.50;;;;;;;12.71;100.00;100838.03;5071087;28;20175;-72
2021/07/23 01:55:47;;;;;;;2.77;2.13;;;;;;;12.68;100.00;100836.72;5071248;28;20182;-72
2021/07/23 01:58:13;;;;;;;3.93;2.50;;;;;;;12.71;100.00;100838.03;5071014;28;20563;-72
2021/07/23 02:00:39;;;;;;;2.43;2.23;;;;;;;12.77;100.00;100847.75;5070982;28;20201;-72
2021/07/23 02:03:04;;;;;;;3.80;2.80;;;;;;;12.79;100.00;100845.50;5071021;28;20186;-72
2021/07/23 02:05:29;;;;;;;2.87;2.67;;;;;;;12.83;100.00;100849.22;5071120;28;20166;-72
2021/07/23 02:07:55;;;;;;;2.60;2.40;;;;;;;12.83;100.00;100843.72;5071157;28;20479;-72
2021/07/23 02:10:20;;;;;;;3.40;2.40;;;;;;;12.81;100.00;100840.50;5071078;28;20564;-72
2021/07/23 02:12:45;;;;;;;2.97;2.77;;;;;;;12.79;100.00;100840.81;5070537;28;20170;-72
2021/07/23 02:15:11;;;;;;;2.90;2.70;;;;;;;12.81;100.00;100838.56;5071294;28;20550;-72
2021/07/23 02:17:36;;;;;;;3.27;2.70;;;;;;;12.84;100.00;100831.63;5071129;28;20610;-72
2021/07/23 02:20:02;;;;;;;2.47;2.27;;;;;;;12.87;100.00;100836.47;5070987;28;20699;-72
2021/07/23 02:22:28;;;;;;;2.27;2.13;;;;;;;12.82;100.00;100836.63;5070711;28;20169;-72
2021/07/23 02:24:53;;;;;;;2.70;2.50;;;;;;;12.78;100.00;100830.16;5070918;28;20668;-72
2021/07/23 02:27:18;;;;;;;4.33;2.70;;;;;;;12.74;100.00;100830.00;5071115;28;20182;-72
2021/07/23 02:29:44;;;;;;;3.30;2.30;;;;;;;12.70;100.00;100817.22;5074482;28;20171;-72
2021/07/23 02:32:09;;;;;;;3.90;2.67;;;;;;;12.63;100.00;100822.34;5075105;28;20174;-72
2021/07/23 02:34:35;;;;;;;4.43;1.90;;;;;;;12.51;100.00;100823.75;5071653;28;20185;-72
2021/07/23 02:37:00;;;;;;;5.07;2.83;;;;;;;12.45;100.00;100816.81;5071021;28;20201;-72
2021/07/23 02:39:26;;;;;;;6.23;2.43;;;;;;;12.44;100.00;100817.09;5070915;28;20652;-72
2021/07/23 02:41:51;;;;;;;3.17;2.87;;;;;;;12.38;100.00;100815.63;5070671;28;20166;-72
2021/07/23 02:44:17;;;;;;;2.23;2.10;;;;;;;12.32;100.00;100817.69;5070722;28;20174;-72
2021/07/23 02:46:43;;;;;;;2.53;2.33;;;;;;;12.25;100.00;100817.31;5070489;28;20174;-72
2021/07/23 02:49:08;;;;;;;2.40;2.20;;;;;;;12.24;100.00;100821.19;5070340;28;20262;-72
2021/07/23 02:51:33;;;;;;;2.97;2.43;;;;;;;12.27;100.00;100814.25;5070188;28;20170;-72
2021/07/23 02:53:59;;;;;;;2.60;2.40;;;;;;;12.21;100.00;100808.91;5070503;28;20171;-72
2021/07/23 02:56:25;;;;;;;3.73;2.83;;;;;;;12.20;100.00;100811.97;5070470;28;20174;-72
2021/07/23 02:58:51;;;;;;;2.93;2.40;;;;;;;12.23;100.00;100803.13;5070355;28;20170;-72
2021/07/23 03:01:17;;;;;;;2.47;2.27;;;;;;;12.30;100.00;100805.44;5069901;28;20182;-72
2021/07/23 03:03:42;;;;;;;2.60;2.40;;;;;;;12.30;100.00;100803.50;5070355;28;20250;-73
2021/07/23 03:06:07;;;;;;;2.00;1.80;;;;;;;12.28;100.00;100805.72;5070373;28;20178;-73
2021/07/23 03:08:33;;;;;;;1.97;1.87;;;;;;;12.22;100.00;100807.00;5070247;28;20190;-72
2021/07/23 03:11:01;;;;;;;2.40;2.20;;;;;;;12.21;100.00;100797.97;5069941;28;20182;-72
2021/07/23 03:13:26;;;;;;;2.70;2.50;;;;;;;12.18;100.00;100795.84;5070012;28;20527;-72
2021/07/23 03:15:51;;;;;;;2.93;2.73;;;;;;;12.20;100.00;100801.03;5070192;28;20179;-73
2021/07/23 03:18:17;;;;;;;1.90;1.80;;;;;;;12.13;100.00;100797.91;5070134;28;20210;-72
2021/07/23 03:20:42;;;;;;;2.57;2.37;;;;;;;12.09;100.00;100802.41;5070294;28;20182;-72
2021/07/23 03:23:08;;;;;;;4.33;2.37;;;;;;;12.12;100.00;100796.28;5069849;28;20170;-73
2021/07/23 03:25:33;;;;;;;2.30;2.10;;;;;;;12.23;100.00;100794.91;5071350;28;20638;-72
2021/07/23 03:27:59;;;;;;;2.47;2.27;;;;;;;12.32;100.00;100804.00;5073866;28;20612;-72
2021/07/23 03:30:25;;;;;;;3.17;2.87;;;;;;;12.37;100.00;100794.81;5073875;28;20181;-73
2021/07/23 03:32:50;;;;;;;2.27;2.00;;;;;;;12.27;100.00;100803.31;5073669;28;20174;-72
2021/07/23 03:35:16;;;;;;;3.63;1.90;;;;;;;12.21;100.00;100797.97;5073720;28;20646;-72
2021/07/23 03:37:41;;;;;;;1.93;1.83;;;;;;;12.16;100.00;100797.31;5073607;28;20661;-72
2021/07/23 03:40:08;;;;;;;2.40;2.20;;;;;;;12.15;100.00;100795.66;5073625;28;20182;-73
2021/07/23 03:42:34;;;;;;;2.00;1.90;;;;;;;12.12;100.00;100796.28;5073513;28;20179;-73
2021/07/23 03:45:00;;;;;;;2.63;2.43;;;;;;;12.15;100.00;100799.22;5073749;28;20200;-72
2021/07/23 03:47:25;;;;;;;2.60;2.40;;;;;;;12.20;100.00;100795.53;5073571;28;20174;-73
2021/07/23 03:49:51;;;;;;;2.70;2.10;;;;;;;12.23;100.00;100794.09;5073440;28;20175;-72
2021/07/23 03:52:16;;;;;;;2.33;2.13;;;;;;;12.22;100.00;100796.03;5073220;28;20175;-72
2021/07/23 03:54:41;;;;;;;2.37;2.13;;;;;;;12.25;100.00;100797.31;5073749;28;20179;-73
2021/07/23 03:57:07;;;;;;;4.07;2.50;;;;;;;12.18;100.00;100798.59;5073268;28;20205;-72
2021/07/23 03:59:33;;;;;;;1.70;1.60;;;;;;;12.06;100.00;100787.41;5073289;28;20199;-72
2021/07/23 04:01:59;;;;;;;2.43;2.23;;;;;;;12.03;100.00;100789.97;5073088;28;20186;-73
2021/07/23 04:04:24;;;;;;;2.60;2.10;;;;;;;12.04;100.00;100783.38;5073270;28;20175;-72
2021/07/23 04:06:59;;;;;;;6.60;2.57;;;;;;;12.10;100.00;100801.28;5073259;28;20206;-72
2021/07/23 04:09:26;;;;;;;2.40;2.20;;;;;;;12.18;100.00;100795.84;5073349;28;20681;-72
2021/07/23 04:11:52;;;;;;;2.63;2.43;;;;;;;12.20;100.00;100799.09;5072848;28;20167;-72
2021/07/23 04:14:18;;;;;;;2.63;2.37;;;;;;;12.26;100.00;100799.75;5073039;28;20163;-73
2021/07/23 04:16:44;;;;;;;3.23;2.23;;;;;;;12.31;100.00;100790.63;5073184;28;20198;-72
2021/07/23 04:19:09;;;;;;;2.60;2.40;;;;;;;12.35;100.00;100803.34;5073039;28;20171;-73
2021/07/23 04:21:35;;;;;;;2.83;2.63;;;;;;;12.48;100.00;100801.66;5072719;28;20170;-73
2021/07/23 04:24:00;;;;;;;2.70;2.40;;;;;;;12.56;100.00;100789.91;5072785;28;20174;-72
2021/07/23 04:26:25;;;;;;;2.70;2.50;;;;;;;12.65;100.00;100798.19;5072981;28;20166;-73
2021/07/23 04:28:51;;;;;;;3.47;2.93;;;;;;;12.69;100.00;100797.22;5072833;28;20246;-73
2021/07/23 04:31:16;;;;;;;2.33;2.13;;;;;;;12.76;100.00;100786.63;5072801;28;20645;-73
2021/07/23 04:33:42;;;;;;;5.80;2.30;;;;;;;12.78;100.00;100795.31;5072919;28;20258;-73
2021/07/23 04:36:07;;;;;;;3.37;2.37;;;;;;;12.84;100.00;100795.16;5071330;28;20174;-73
2021/07/23 04:38:33;;;;;;;2.43;2.23;;;;;;;12.89;100.00;100795.03;5072564;28;20688;-73
2021/07/23 04:40:58;;;;;;;2.67;2.47;;;;;;;12.92;100.00;100794.41;5072679;28;20700;-73
2021/07/23 04:43:23;;;;;;;2.50;2.30;;;;;;;12.96;100.00;100800.84;5072495;28;20174;-73
2021/07/23 04:45:48;;;;;;;2.00;1.90;;;;;;;13.02;100.00;100794.94;5072524;28;20163;-74
2021/07/23 04:48:14;;;;;;;2.20;2.07;;;;;;;13.09;100.00;100794.44;5072502;28;20171;-73
2021/07/23 04:50:39;;;;;;;2.33;2.13;;;;;;;13.15;100.00;100798.63;5072391;28;20202;-73
2021/07/23 04:53:04;;;;;;;2.70;2.50;;;;;;;13.13;100.00;100791.84;5072218;28;20634;-72
2021/07/23 04:55:30;;;;;;;2.53;2.37;;;;;;;13.16;100.00;100796.69;5072184;28;20222;-73
2021/07/23 04:57:55;;;;;;;2.77;2.37;;;;;;;13.25;100.00;100794.81;5072524;28;20206;-74
2021/07/23 05:00:20;;;;;;;4.57;2.27;;;;;;;13.28;100.00;100788.69;5072449;28;20308;-73
2021/07/23 05:02:52;;;;;;;2.50;2.30;;;;;;;13.36;100.00;100793.38;5071815;28;20183;-73
2021/07/23 05:05:21;;;;;;;5.53;2.43;;;;;;;13.39;100.00;100790.81;5072072;28;20170;-73
2021/07/23 05:07:46;;;;;;;2.87;2.30;;;;;;;13.40;100.00;100781.44;5072496;28;20183;-73
2021/07/23 05:10:12;;;;;;;2.90;2.70;;;;;;;13.42;100.00;100783.84;5070680;28;20178;-73
2021/07/23 05:12:38;;;;;;;2.20;2.00;;;;;;;13.43;99.98;100781.91;5071894;28;20206;-74
2021/07/23 05:15:04;;;;;;;2.73;2.23;;;;;;;13.43;99.41;100788.22;5071899;28;20181;-73
2021/07/23 05:17:31;;;;;;;2.23;2.03;;;;;;;13.50;99.17;100780.31;5070503;28;20206;-72
2021/07/23 05:19:57;;;;;;;3.20;2.93;;;;;;;13.55;98.97;100782.09;5071127;28;20707;-72
2021/07/23 05:22:23;;;;;;;3.27;3.07;;;;;;;13.62;98.44;100785.97;5071391;28;20273;-72
2021/07/23 05:24:48;;;;;;;2.80;2.60;;;;;;;13.68;97.59;100792.09;5071246;28;20182;-72
2021/07/23 05:27:14;;;;;;;3.57;3.27;;;;;;;13.74;97.27;100784.50;5067892;28;20214;-72
2021/07/23 05:29:41;;;;;;;6.10;2.50;;;;;;;13.80;96.94;100794.19;5071457;28;20182;-72
2021/07/23 05:32:06;;;;;;;4.50;2.57;;;;;;;13.88;97.26;100788.69;5070844;28;20228;-72
2021/07/23 05:34:32;;;;;;;2.40;1.80;;;;;;;13.91;97.04;100785.31;5071746;28;20634;-72
2021/07/23 05:36:57;;;;;;;2.47;2.27;;;;;;;13.86;97.16;100785.47;5070061;28;20540;-72
2021/07/23 05:39:22;;;;;;;2.97;2.60;;;;;;;13.93;97.41;100784.97;5071481;28;20262;-72
2021/07/23 05:41:48;;;;;;;5.40;2.37;;;;;;;13.97;96.77;100784.00;5071117;28;20174;-72
2021/07/23 05:44:14;;;;;;;3.77;2.20;;;;;;;14.06;96.73;100784.00;5071333;28;20171;-72
2021/07/23 05:46:39;;;;;;;3.17;2.97;;;;;;;14.06;96.40;100784.00;5070014;28;20217;-71
2021/07/23 05:49:05;;;;;;;2.73;2.53;;;;;;;14.10;96.69;100793.19;5070916;28;20181;-71
2021/07/23 05:51:31;;;;;;;2.83;2.63;;;;;;;14.15;96.59;100786.72;5071064;28;20167;-71
2021/07/23 05:53:56;;;;;;;2.77;2.57;;;;;;;14.19;96.89;100785.75;5071061;28;20231;-71
2021/07/23 05:56:21;;;;;;;2.63;2.43;;;;;;;14.25;95.97;100789.91;5071348;28;20606;-71
2021/07/23 05:58:47;;;;;;;2.77;2.47;;;;;;;14.29;94.50;100788.13;5071094;28;20266;-72
2021/07/23 06:01:13;;;;;;;2.60;2.40;;;;;;;14.33;94.61;100785.56;5070520;28;20182;-71
2021/07/23 06:03:39;;;;;;;3.23;2.43;;;;;;;14.37;95.04;100788.44;5071296;28;20182;-71
2021/07/23 06:06:05;;;;;;;2.87;2.67;;;;;;;14.46;95.35;100786.47;5070924;28;20174;-71
2021/07/23 06:08:30;;;;;;;3.33;2.20;;;;;;;14.51;93.48;100789.06;5071033;28;20178;-72
2021/07/23 06:10:56;;;;;;;2.23;2.13;;;;;;;14.54;92.92;100783.72;5070778;28;20198;-71
2021/07/23 06:13:21;;;;;;;5.33;2.77;;;;;;;14.56;92.04;100788.88;5071009;28;20171;-71
2021/07/23 06:15:47;;;;;;;5.03;4.53;;;;;;;14.60;93.33;100778.81;5070891;28;20209;-71
2021/07/23 06:18:12;;;;;;;3.90;3.60;;;;;;;14.57;93.26;100780.28;5071157;28;20214;-71
2021/07/23 06:20:37;;;;;;;3.10;2.83;;;;;;;14.61;93.43;100776.88;5070697;28;20182;-71
2021/07/23 06:23:03;;;;;;;3.20;2.63;;;;;;;14.64;93.75;100779.81;5070525;28;20202;-71
2021/07/23 06:25:28;;;;;;;3.30;2.23;;;;;;;14.78;93.00;100785.06;5070664;28;20691;-72
2021/07/23 06:27:54;;;;;;;2.50;2.30;;;;;;;14.76;91.06;100785.41;5070550;28;20696;-71
2021/07/23 06:30:19;;;;;;;2.70;2.10;;;;;;;14.92;91.39;100784.84;5068929;28;20182;-71
2021/07/23 06:32:44;;;;;;;2.00;1.90;;;;;;;15.05;90.88;100792.88;5070296;28;20220;-71
2021/07/23 06:35:10;;;;;;;2.67;2.47;;;;;;;15.19;90.78;100789.88;5070763;28;20562;-72
2021/07/23 06:37:36;;;;;;;2.00;1.90;;;;;;;15.18;89.83;100785.47;5070634;28;20198;-71
2021/07/23 06:40:01;;;;;;;5.20;2.13;;;;;;;15.23;89.19;100787.25;5070829;28;20618;-72
2021/07/23 06:42:26;;;;;;;3.50;2.30;;;;;;;15.20;88.84;100785.97;5070171;28;20251;-71
2021/07/23 06:44:52;;;;;;;2.87;2.23;;;;;;;15.24;89.22;100786.91;5070548;28;20183;-72
2021/07/23 06:47:19;;;;;;;2.37;2.17;;;;;;;15.25;88.79;100787.72;5070762;28;20257;-71
2021/07/23 06:49:44;;;;;;;1.97;1.87;;;;;;;15.24;89.51;100795.16;5070442;28;20195;-72
2021/07/23 06:52:10;;;;;;;2.40;2.00;;;;;;;15.25;89.43;100791.25;5070165;28;20198;-72
2021/07/23 06:54:36;;;;;;;2.87;2.67;;;;;;;15.29;89.10;100791.41;5070393;28;20653;-72
2021/07/23 06:57:04;;;;;;;2.00;1.90;;;;;;;15.39;89.15;100794.56;5070550;28;20646;-72
2021/07/23 06:59:33;;;;;;;2.73;2.53;;;;;;;15.54;88.33;100797.88;5070331;28;20261;-71
2021/07/23 07:01:59;;;;;;;3.60;2.70;;;;;;;15.58;86.22;100793.28;5073884;28;20193;-71
2021/07/23 07:04:28;;;;;;;3.00;2.50;;;;;;;15.72;86.29;100791.91;5074653;28;20232;-72
2021/07/23 07:06:54;;;;;;;2.67;2.20;;;;;;;15.81;86.00;100791.84;5074550;28;20182;-71
2021/07/23 07:09:22;;;;;;;2.43;2.10;;;;;;;15.86;86.23;100791.63;5067296;28;20601;-72
2021/07/23 07:11:47;;;;;;;2.27;2.07;;;;;;;15.93;86.66;100786.38;5067232;28;20571;-72
2021/07/23 07:14:13;;;;;;;2.60;2.40;;;;;;;15.90;85.39;100781.53;5073996;28;20200;-71
2021/07/23 07:16:38;;;;;;;2.47;2.30;;;;;;;15.95;85.85;100788.78;5074076;28;20170;-72
2021/07/23 07:19:03;;;;;;;3.63;2.77;;;;;;;16.01;84.70;100785.47;5074054;28;20618;-71
2021/07/23 07:21:29;;;;;;;2.03;1.93;;;;;;;16.03;82.73;100790.63;5071400;28;20622;-72
2021/07/23 07:23:54;;;;;;;1.83;1.50;;;;;;;16.01;82.96;100788.22;5060989;28;20589;-72
2021/07/23 07:26:19;;;;;;;2.27;1.80;;;;;;;15.99;83.64;100782.25;5061797;28;20179;-72
2021/07/23 07:28:45;;;;;;;2.03;1.93;;;;;;;16.02;83.31;100787.06;5073411;28;20537;-72
2021/07/23 07:31:14;;;;;;;2.73;2.07;;;;;;;16.10;82.08;100790.09;5073691;28;20273;-72
2021/07/23 07:33:40;;;;;;;1.90;1.70;;;;;;;16.15;81.71;100784.38;5073735;28;20200;-72
2021/07/23 07:36:05;;;;;;;2.20;2.00;;;;;;;16.20;80.55;100784.13;5074009;28;20182;-71
2021/07/23 07:38:30;;;;;;;2.43;1.97;;;;;;;16.40;81.20;100782.47;5074030;28;20225;-72
2021/07/23 07:40:56;;;;;;;1.63;1.53;;;;;;;16.33;80.78;100783.81;5073789;28;20253;-72
2021/07/23 07:43:21;;;;;;;2.33;1.77;;;;;;;16.41;81.00;100784.88;5073903;28;20529;-72
2021/07/23 07:45:46;;;;;;;2.33;2.13;;;;;;;16.47;80.81;100779.94;5073957;28;20253;-72
2021/07/23 07:48:12;;;;;;;2.40;2.13;;;;;;;16.46;79.34;100786.59;5073696;28;20202;-72
2021/07/23 07:50:37;;;;;;;1.90;1.80;;;;;;;16.63;81.03;100778.91;5073761;28;20179;-71
2021/07/23 07:53:09;;;;;;;2.37;1.80;;;;;;;16.65;80.36;100782.16;5072072;28;20733;-72
2021/07/23 07:55:34;;;;;;;2.90;1.97;;;;;;;16.65;79.76;100784.13;5073971;28;20179;-72
2021/07/23 07:57:59;;;;;;;1.73;1.50;;;;;;;16.80;77.51;100774.38;5073533;28;20289;-72
2021/07/23 08:00:25;;;;;;;2.23;1.30;;;;;;;16.96;78.25;100775.28;5074040;28;20706;-72
2021/07/23 08:02:50;;;;;;;5.97;1.87;;;;;;;17.11;77.79;100771.03;5081350;28;20186;-71
2021/07/23 08:05:16;;;;;;;1.60;1.50;;;;;;;17.14;77.48;100767.56;5075074;28;20194;-72
2021/07/23 08:07:41;;;;;;;2.27;2.17;;;;;;;17.10;75.49;100769.41;5074426;28;20174;-72
2021/07/23 08:10:10;;;;;;;1.50;1.40;;;;;;;17.14;76.93;100773.88;5073672;28;20303;-71
2021/07/23 08:12:35;;;;;;;2.00;1.70;;;;;;;17.19;77.56;100770.88;5073116;28;20261;-71
2021/07/23 08:15:01;;;;;;;2.27;1.97;;;;;;;17.36;77.05;100772.59;5073602;28;20308;-72
2021/07/23 08:17:28;;;;;;;1.50;1.40;;;;;;;17.32;77.13;100768.09;5068951;28;20462;-72
2021/07/23 08:19:55;;;;;;;2.37;1.50;;;;;;;17.20;76.88;100758.66;5073198;28;20189;-71
2021/07/23 08:22:21;;;;;;;1.77;1.67;;;;;;;17.43;77.10;100774.75;5073159;28;20174;-71
2021/07/23 08:24:46;;;;;;;1.43;1.33;;;;;;;17.60;75.75;100770.88;5073119;28;20586;-71
2021/07/23 08:27:13;;;;;;;3.47;1.77;;;;;;;17.71;76.41;100764.56;5073082;28;20171;-71
2021/07/23 08:29:39;;;;;;;2.90;1.57;;;;;;;17.90;75.94;100763.09;5073043;28;20170;-71
2021/07/23 08:32:06;;;;;;;1.70;1.60;;;;;;;17.96;75.98;100772.75;5072615;28;20189;-72
2021/07/23 08:34:32;;;;;;;1.70;1.27;;;;;;;17.98;72.77;100770.44;5072716;28;20543;-72
2021/07/23 08:36:57;;;;;;;1.83;1.40;;;;;;;17.98;71.80;100773.19;5072375;28;20203;-71
2021/07/23 08:39:22;;;;;;;3.07;1.80;;;;;;;17.84;71.85;100768.88;5070389;28;20199;-72
2021/07/23 08:41:48;;;;;;;2.00;1.73;;;;;;;17.63;71.84;100765.47;5064192;28;20181;-71
2021/07/23 08:44:14;;;;;;;1.43;1.33;;;;;;;17.68;72.96;100765.25;5072737;28;20670;-71
2021/07/23 08:46:40;;;;;;;1.87;1.23;;;;;;;18.02;73.32;100766.59;5072791;28;20529;-71
2021/07/23 08:49:06;;;;;;;3.83;1.60;;;;;;;18.18;72.90;100758.31;5059786;28;20488;-71
2021/07/23 08:51:32;;;;;;;2.57;1.73;;;;;;;18.19;70.64;100759.94;5068679;28;20182;-71
2021/07/23 08:53:57;;;;;;;1.10;1.00;;;;;;;18.44;72.16;100752.28;5071572;28;20642;-71
2021/07/23 08:56:22;;;;;;;1.80;1.70;;;;;;;18.17;68.23;100759.47;5072300;28;20242;-71
2021/07/23 08:58:48;;;;;;;3.10;1.97;;;;;;;18.26;69.04;100751.03;5072129;28;20210;-71
2021/07/23 09:01:13;;;;;;;1.37;1.27;;;;;;;18.28;70.74;100757.81;5072029;28;20170;-71
2021/07/23 09:03:38;;;;;;;2.63;1.80;;;;;;;18.26;71.56;100757.34;5072163;28;20578;-71
2021/07/23 09:06:18;;;;;;;3.43;1.33;;;;;;;18.47;71.13;100745.22;5072169;28;20587;-71
2021/07/23 09:08:54;;;;;;;1.80;1.70;;;;;;;18.39;70.25;100745.06;5072139;28;20231;-71
2021/07/23 09:11:27;;;;;;;4.73;1.57;;;;;;;18.71;70.54;100742.31;5070547;28;20269;-71
2021/07/23 09:14:12;;;;;;;1.80;1.67;;;;;;;18.69;68.73;100742.66;5071901;28;20224;-71
2021/07/23 09:16:38;;;;;;;1.63;1.50;;;;;;;18.85;71.11;100745.41;5072252;28;20528;-71
2021/07/23 09:19:10;;;;;;;1.40;1.30;;;;;;;18.93;67.92;100736.09;5072028;28;20174;-71
2021/07/23 09:21:39;;;;;;;2.30;2.10;;;;;;;18.93;67.68;100740.81;5072196;28;20174;-71
2021/07/23 09:24:06;;;;;;;2.13;1.83;;;;;;;18.35;67.12;100738.59;5070882;28;20654;-72
2021/07/23 09:26:43;;;;;;;2.47;2.27;;;;;;;18.71;69.40;100734.00;5071739;28;20178;-71
2021/07/23 09:29:09;;;;;;;2.00;1.90;;;;;;;18.62;67.49;100734.13;5071782;28;20167;-71
2021/07/23 09:31:35;;;;;;;3.07;2.23;;;;;;;18.56;67.48;100724.50;5071230;28;20179;-71
2021/07/23 09:34:02;;;;;;;2.43;2.23;;;;;;;18.78;67.03;100727.81;5071519;28;20167;-71
2021/07/23 09:36:28;;;;;;;2.13;1.93;;;;;;;18.89;66.02;100728.88;5071489;28;20521;-71
2021/07/23 09:39:02;;;;;;;1.70;1.60;;;;;;;19.15;66.83;100712.44;5071457;28;20202;-72
2021/07/23 09:41:28;;;;;;;2.57;1.60;;;;;;;19.28;65.08;100715.88;5071296;28;20179;-72
2021/07/23 09:44:08;;;;;;;2.23;1.90;;;;;;;19.40;64.74;100712.19;5071366;28;20171;-71
2021/07/23 09:46:44;;;;;;;2.70;2.07;;;;;;;19.61;63.48;100724.53;5071472;28;20179;-71
2021/07/23 09:49:27;;;;;;;1.93;1.83;;;;;;;19.72;65.84;100715.63;5071500;28;20205;-71
2021/07/23 09:52:02;;;;;;;2.23;2.03;;;;;;;19.73;63.29;100725.53;5070915;28;20174;-71
2021/07/23 09:54:27;;;;;;;3.07;1.93;;;;;;;19.94;64.90;100720.38;5070950;28;20174;-70
2021/07/23 09:56:53;;;;;;;2.37;2.17;;;;;;;19.53;61.34;100714.44;5068139;28;20597;-71
2021/07/23 09:59:39;;;;;;;2.57;2.03;;;;;;;19.67;64.55;100707.59;5069804;28;20189;-71
2021/07/23 10:02:14;;;;;;;2.50;2.30;;;;;;;19.85;61.86;100712.31;5071148;28;20248;-70
2021/07/23 10:04:55;;;;;;;1.90;1.67;;;;;;;19.90;62.06;100712.00;5070948;28;20185;-71
2021/07/23 10:07:24;;;;;;;1.80;1.50;;;;;;;19.72;61.05;100704.53;5071082;28;20265;-70
2021/07/23 10:09:51;;;;;;;1.60;1.50;;;;;;;19.95;63.26;100707.31;5070988;28;20174;-71
2021/07/23 10:12:18;;;;;;;3.87;1.70;;;;;;;20.10;64.71;100704.44;5070885;28;20181;-70
2021/07/23 10:14:47;;;;;;;4.27;1.80;;;;;;;20.05;62.36;100704.75;5070944;28;20604;-70
2021/07/23 10:17:13;;;;;;;1.83;1.50;;;;;;;20.24;61.65;100705.84;5071035;28;20689;-70
2021/07/23 10:19:39;;;;;;;1.73;1.63;;;;;;;20.15;61.36;100698.59;5069636;28;20240;-71
2021/07/23 10:22:06;;;;;;;2.13;1.90;;;;;;;20.32;59.92;100700.06;5070667;28;20188;-71
2021/07/23 10:24:35;;;;;;;2.57;1.53;;;;;;;20.40;60.96;100695.44;5071147;28;20177;-71
2021/07/23 10:27:11;;;;;;;5.07;2.37;;;;;;;20.46;60.07;100691.19;5070600;28;20401;-71
2021/07/23 10:29:49;;;;;;;1.60;1.50;;;;;;;20.37;59.98;100688.63;5067368;28;20243;-71
2021/07/23 10:32:26;;;;;;;2.70;1.60;;;;;;;20.30;60.85;100685.75;5069973;28;20187;-70
2021/07/23 10:34:58;;;;;;;1.77;1.40;;;;;;;20.16;60.25;100680.78;5063174;28;20253;-71
2021/07/23 10:37:29;;;;;;;1.77;1.20;;;;;;;20.30;60.92;100676.63;5067607;28;20207;-71
2021/07/23 10:40:11;;;;;;;1.70;1.60;;;;;;;20.48;59.67;100677.75;5069273;28;20183;-71
2021/07/23 10:42:38;;;;;;;1.60;1.50;;;;;;;20.27;59.92;100669.84;5070346;28;20236;-71
2021/07/23 10:45:05;;;;;;;1.83;1.50;;;;;;;20.44;60.19;100669.38;5070656;28;20270;-71
2021/07/23 10:47:39;;;;;;;1.73;1.57;;;;;;;20.52;58.94;100675.81;5070774;28;20760;-71
2021/07/23 10:50:09;;;;;;;2.10;1.20;;;;;;;20.60;58.04;100660.88;5070799;28;20174;-71
2021/07/23 10:52:36;;;;;;;3.37;1.50;;;;;;;20.36;59.01;100666.81;5070161;28;20213;-70
2021/07/23 10:55:09;;;;;;;1.10;1.10;;;;;;;20.68;58.36;100668.13;5070491;28;20670;-72
2021/07/23 10:57:34;;;;;;;1.27;1.17;;;;;;;20.80;58.03;100670.69;5070108;28;20202;-73
2021/07/23 11:00:00;;;;;;;1.40;1.00;;;;;;;20.63;57.15;100657.34;5070507;28;20174;-73
2021/07/23 11:02:29;;;;;;;1.50;1.00;;;;;;;20.69;58.05;100664.19;5070001;28;20187;-73
2021/07/23 11:05:04;;;;;;;1.10;1.00;;;;;;;20.38;57.65;100650.59;5070190;28;20175;-73
2021/07/23 11:07:30;;;;;;;1.97;1.07;;;;;;;20.51;57.50;100657.56;5068989;28;20174;-73
2021/07/23 11:09:55;;;;;;;0.90;0.90;;;;;;;20.91;58.19;100658.94;5070267;28;20178;-73
2021/07/23 11:12:33;;;;;;;1.03;1.00;;;;;;;20.99;56.96;100653.09;5070032;28;20211;-72
2021/07/23 11:15:04;;;;;;;0.80;0.80;;;;;;;20.91;57.31;100647.81;5070197;28;20236;-72
2021/07/23 11:17:30;;;;;;;1.10;1.00;;;;;;;20.89;56.42;100653.75;5070084;28;20210;-73
2021/07/23 11:20:03;;;;;;;1.17;1.07;;;;;;;20.72;57.56;100669.00;5068872;28;20274;-72